createdAt,value
2023-01-06T00:01:14.333Z,0.88
2023-01-06T00:05:17.696Z,0.68
2023-01-06T00:09:27.816Z,0.93
2023-01-06T00:13:33.574Z,0.60
2023-01-06T00:17:36.690Z,1.08
2023-01-06T00:21:42.599Z,0.80
2023-01-06T00:25:52.032Z,1.67
2023-01-06T00:29:58.458Z,0.80
2023-01-06T00:34:05.253Z,0.93
2023-01-06T00:38:12.280Z,0.95
2023-01-06T00:42:19.970Z,0.88
2023-01-06T00:46:27.133Z,1.10
2023-01-06T00:50:34.648Z,1.05
2023-01-06T00:54:38.395Z,1.25
2023-01-06T00:58:47.335Z,1.30
2023-01-06T01:02:56.663Z,1.00
2023-01-06T01:07:05.021Z,1.20
2023-01-06T01:11:11.162Z,1.00
2023-01-06T01:15:20.760Z,1.17
2023-01-06T01:19:32.820Z,1.10
2023-01-06T01:23:39.824Z,0.98
2023-01-06T01:27:48.963Z,1.10
2023-01-06T01:31:56.803Z,1.10
2023-01-06T01:36:13.797Z,1.42
2023-01-06T01:40:38.206Z,1.00
2023-01-06T01:45:03.758Z,1.20
2023-01-06T01:49:21.245Z,1.58
2023-01-06T01:53:36.547Z,1.05
2023-01-06T01:57:42.705Z,0.85
2023-01-06T02:01:46.533Z,1.02
2023-01-06T02:10:05.663Z,0.70
2023-01-06T02:14:12.201Z,0.90
2023-01-06T02:18:27.148Z,1.00
2023-01-06T02:22:46.838Z,0.82
2023-01-06T02:27:17.647Z,0.90
2023-01-06T02:31:39.411Z,1.50
2023-01-06T02:35:52.304Z,0.90
2023-01-06T02:40:09.230Z,1.10
2023-01-06T02:44:19.512Z,0.80
2023-01-06T02:48:28.636Z,0.80
2023-01-06T02:52:43.717Z,0.82
2023-01-06T02:56:56.272Z,0.90
2023-01-06T03:01:03.638Z,0.95
2023-01-06T03:05:11.212Z,1.17
2023-01-06T03:09:15.891Z,1.25
2023-01-06T03:13:24.624Z,0.98
2023-01-06T03:17:28.166Z,0.90
2023-01-06T03:21:38.876Z,0.98
2023-01-06T03:25:42.522Z,1.00
2023-01-06T03:29:45.614Z,1.40
2023-01-06T03:33:55.737Z,0.80
2023-01-06T03:42:36.281Z,1.10
2023-01-06T03:46:42.549Z,1.13
2023-01-06T03:50:50.102Z,1.30
2023-01-06T03:54:57.724Z,1.20
2023-01-06T03:59:04.867Z,0.98
2023-01-06T04:03:09.797Z,1.00
2023-01-06T04:07:16.434Z,1.27
2023-01-06T04:11:38.685Z,1.13
2023-01-06T04:15:43.014Z,1.20
2023-01-06T04:19:46.446Z,1.40
2023-01-06T04:23:49.930Z,1.10
2023-01-06T04:27:58.444Z,1.00
2023-01-06T04:32:02.606Z,1.13
2023-01-06T04:36:06.100Z,1.13
2023-01-06T04:40:11.236Z,0.93
2023-01-06T04:44:16.190Z,0.98
2023-01-06T04:48:19.184Z,1.40
2023-01-06T04:52:22.070Z,1.13
2023-01-06T04:56:26.884Z,6.45
2023-01-06T05:00:31.889Z,1.30
2023-01-06T05:04:47.035Z,1.45
2023-01-06T05:08:50.637Z,1.00
2023-01-06T05:12:54.071Z,0.82
2023-01-06T05:16:59.111Z,1.23
2023-01-06T05:21:02.059Z,0.95
2023-01-06T05:25:07.113Z,0.98
2023-01-06T05:29:20.953Z,1.02
2023-01-06T05:33:25.697Z,1.00
2023-01-06T05:37:29.309Z,0.90
2023-01-06T05:41:32.837Z,0.82
2023-01-06T05:45:36.243Z,0.95
2023-01-06T05:49:41.371Z,0.95
2023-01-06T05:53:49.858Z,1.00
2023-01-06T05:57:56.143Z,1.40
2023-01-06T06:02:03.119Z,1.40
2023-01-06T06:06:19.857Z,0.90
2023-01-06T06:10:23.900Z,1.42
2023-01-06T06:14:29.329Z,1.77
2023-01-06T06:18:46.491Z,1.33
2023-01-06T06:22:55.242Z,1.10
2023-01-06T06:27:06.781Z,1.00
2023-01-06T06:31:13.718Z,1.02
2023-01-06T06:35:34.668Z,1.00
2023-01-06T06:39:46.049Z,0.90
2023-01-06T06:43:50.465Z,0.80
2023-01-06T06:47:56.260Z,1.00
2023-01-06T06:52:00.148Z,1.30
2023-01-06T06:56:08.771Z,1.20
2023-01-06T07:00:16.869Z,1.20
2023-01-06T07:04:24.360Z,1.30
2023-01-06T07:08:33.975Z,1.30
2023-01-06T07:12:57.528Z,2.85
2023-01-06T07:17:03.741Z,1.05
2023-01-06T07:21:13.594Z,1.30
2023-01-06T07:25:24.253Z,1.25
2023-01-06T07:29:30.474Z,1.30
2023-01-06T07:33:35.168Z,1.60
2023-01-06T07:37:39.356Z,1.50
2023-01-06T07:41:42.759Z,1.20
2023-01-06T07:45:55.818Z,1.30
2023-01-06T07:50:02.210Z,1.40
2023-01-06T07:54:06.057Z,1.30
2023-01-06T07:58:22.089Z,1.10
2023-01-06T08:02:32.587Z,1.60
2023-01-06T08:06:37.831Z,1.42
2023-01-06T08:10:46.725Z,1.77
2023-01-06T08:14:56.892Z,1.52
2023-01-06T08:23:09.619Z,1.70
2023-01-06T08:27:19.139Z,1.80
2023-01-06T08:31:28.352Z,1.45
2023-01-06T08:35:45.323Z,1.95
2023-01-06T08:40:02.217Z,1.52
2023-01-06T08:44:14.870Z,1.85
2023-01-06T08:48:26.594Z,2.00
2023-01-06T08:52:37.187Z,1.55
2023-01-06T08:56:43.823Z,1.80
2023-01-06T09:00:54.234Z,1.70
2023-01-06T09:04:58.954Z,1.75
2023-01-06T09:09:08.200Z,1.50
2023-01-06T09:17:36.995Z,1.25
2023-01-06T09:21:46.386Z,1.70
2023-01-06T09:26:09.783Z,1.88
2023-01-06T09:30:39.060Z,1.63
2023-01-06T09:34:42.081Z,2.47
2023-01-06T09:38:49.694Z,1.40
2023-01-06T09:43:04.383Z,1.52
2023-01-06T09:47:16.598Z,1.02
2023-01-06T09:51:27.433Z,1.30
2023-01-06T09:55:34.534Z,1.30
2023-01-06T09:59:50.455Z,1.50
2023-01-06T10:03:54.733Z,1.63
2023-01-06T10:08:05.563Z,1.42
2023-01-06T10:12:22.781Z,1.80
2023-01-06T10:16:39.015Z,1.27
2023-01-06T10:24:56.352Z,1.40
2023-01-06T10:29:19.177Z,1.50
2023-01-06T10:37:39.388Z,1.10
2023-01-06T10:42:18.848Z,0.90
2023-01-06T10:46:26.706Z,1.10
2023-01-06T10:50:47.113Z,1.02
2023-01-06T10:54:56.327Z,0.90
2023-01-06T10:59:05.771Z,1.23
2023-01-06T11:03:32.866Z,1.10
2023-01-06T11:07:49.663Z,0.80
2023-01-06T11:12:00.324Z,1.25
2023-01-06T11:16:07.926Z,0.77
2023-01-06T11:20:41.704Z,0.82
2023-01-06T11:24:56.522Z,0.80
2023-01-06T11:29:25.343Z,0.98
2023-01-06T11:33:32.219Z,1.13
2023-01-06T11:37:44.114Z,2.03
2023-01-06T11:41:52.618Z,0.73
2023-01-06T11:46:01.464Z,0.70
2023-01-06T11:50:06.189Z,0.70
2023-01-06T11:54:27.488Z,0.73
2023-01-06T11:58:41.004Z,0.95
2023-01-06T12:02:53.616Z,0.90
2023-01-06T12:07:00.604Z,0.60
2023-01-06T12:11:08.589Z,0.63
2023-01-06T12:15:14.895Z,0.77
2023-01-06T12:19:23.960Z,0.90
2023-01-06T12:23:33.027Z,0.75
2023-01-06T12:27:41.564Z,0.50
2023-01-06T12:31:57.734Z,0.40
2023-01-06T12:40:13.817Z,0.80
2023-01-06T12:44:22.133Z,0.68
2023-01-06T12:48:36.432Z,0.60
2023-01-06T12:52:44.726Z,0.80
2023-01-06T12:57:01.101Z,0.70
2023-01-06T13:01:17.561Z,0.50
2023-01-06T13:05:31.260Z,1.92
2023-01-06T13:09:44.309Z,1.50
2023-01-06T13:13:59.796Z,1.70
2023-01-06T13:18:16.224Z,1.45
2023-01-06T13:22:25.194Z,6.47
2023-01-06T13:26:43.353Z,3.28
2023-01-06T13:31:26.726Z,4.40
2023-01-06T13:36:10.361Z,5.22
2023-01-06T13:40:19.947Z,1.80
2023-01-06T13:44:30.492Z,1.00
2023-01-06T13:49:08.919Z,1.20
2023-01-06T13:53:28.700Z,1.67
2023-01-06T13:57:39.701Z,2.70
2023-01-06T14:01:45.087Z,2.53
2023-01-06T14:05:54.250Z,1.20
2023-01-06T14:10:00.691Z,1.63
2023-01-06T14:14:12.258Z,1.33
2023-01-06T14:18:38.999Z,1.00
2023-01-06T14:22:43.957Z,8.05
2023-01-06T14:26:58.982Z,7.07
2023-01-06T14:31:48.874Z,19.40
2023-01-06T14:36:04.491Z,2.60
2023-01-06T14:40:10.477Z,2.20
2023-01-06T14:44:30.345Z,2.50
2023-01-06T14:48:41.380Z,1.90
2023-01-06T14:52:56.334Z,1.20
2023-01-06T14:57:01.137Z,0.75
2023-01-06T15:01:08.728Z,1.20
2023-01-06T15:05:19.943Z,0.82
2023-01-06T15:09:27.645Z,1.92
2023-01-06T15:13:32.632Z,2.60
2023-01-06T15:17:36.467Z,2.15
2023-01-06T15:21:45.427Z,1.40
2023-01-06T15:25:52.982Z,1.55
2023-01-06T15:29:58.861Z,1.27
2023-01-06T15:34:03.765Z,3.10
2023-01-06T15:38:28.945Z,4.30
2023-01-06T15:42:39.502Z,4.07
2023-01-06T15:46:43.565Z,3.20
2023-01-06T15:50:47.241Z,2.55
2023-01-06T15:54:54.953Z,1.92
2023-01-06T15:59:01.416Z,2.00
2023-01-06T16:03:06.167Z,2.20
2023-01-06T16:07:26.662Z,4.45
2023-01-06T16:11:51.377Z,2.72
2023-01-06T16:15:59.639Z,3.08
2023-01-06T16:20:04.822Z,3.17
2023-01-06T16:24:16.231Z,2.80
2023-01-06T16:28:28.882Z,2.80
2023-01-06T16:32:38.511Z,2.72
2023-01-06T16:36:43.322Z,3.40
2023-01-06T16:40:48.114Z,2.72
2023-01-06T16:45:01.412Z,2.03
2023-01-06T16:49:10.837Z,2.00
2023-01-06T16:53:18.564Z,2.25
2023-01-06T16:57:23.832Z,2.75
2023-01-06T17:01:37.628Z,3.30
2023-01-06T17:05:43.214Z,3.50
2023-01-06T17:09:46.285Z,2.70
2023-01-06T17:13:54.047Z,4.80
2023-01-06T17:17:59.236Z,3.83
2023-01-06T17:22:14.648Z,4.72
2023-01-06T17:26:20.148Z,10.07
2023-01-06T17:30:23.202Z,4.90
2023-01-06T17:34:31.797Z,4.30
2023-01-06T17:38:36.607Z,4.53
2023-01-06T17:42:42.434Z,3.72
2023-01-06T17:46:45.840Z,7.63
2023-01-06T17:50:54.190Z,5.60
2023-01-06T17:55:18.044Z,4.85
2023-01-06T17:59:23.187Z,4.63
2023-01-06T18:03:27.548Z,6.68
2023-01-06T18:07:30.598Z,7.95
2023-01-06T18:11:36.286Z,5.28
2023-01-06T18:15:39.404Z,5.28
2023-01-06T18:19:42.668Z,4.05
2023-01-06T18:23:47.412Z,4.13
2023-01-06T18:27:52.408Z,5.20
2023-01-06T18:31:55.703Z,3.95
2023-01-06T18:36:04.818Z,4.47
2023-01-06T18:40:11.025Z,6.60
2023-01-06T18:44:20.648Z,6.60
2023-01-06T18:48:29.875Z,4.65
2023-01-06T18:52:43.845Z,3.13
2023-01-06T18:56:46.829Z,2.65
2023-01-06T19:00:54.092Z,3.40
2023-01-06T19:04:57.312Z,3.80
2023-01-06T19:09:03.155Z,3.63
2023-01-06T19:13:11.719Z,3.95
2023-01-06T19:17:23.410Z,4.20
2023-01-06T19:21:26.330Z,4.03
2023-01-06T19:25:34.692Z,4.80
2023-01-06T19:29:37.688Z,3.92
2023-01-06T19:33:44.936Z,4.30
2023-01-06T19:37:48.153Z,3.55
2023-01-06T19:41:58.328Z,3.70
2023-01-06T19:46:04.207Z,4.13
2023-01-06T19:50:20.260Z,3.58
2023-01-06T19:54:28.122Z,7.07
2023-01-06T19:58:36.561Z,4.65
2023-01-06T20:02:45.370Z,4.05
2023-01-06T20:06:49.963Z,5.03
2023-01-06T20:10:53.098Z,4.75
2023-01-06T20:15:06.962Z,4.45
2023-01-06T20:19:10.980Z,4.30
2023-01-06T20:23:16.200Z,5.00
2023-01-06T20:27:19.270Z,5.50
2023-01-06T20:31:22.397Z,5.63
2023-01-06T20:35:26.691Z,5.07
2023-01-06T20:39:31.194Z,4.63
2023-01-06T20:43:34.383Z,5.47
2023-01-06T20:47:37.879Z,4.65
2023-01-06T20:51:41.945Z,4.68
2023-01-06T20:55:47.195Z,5.10
2023-01-06T20:59:51.067Z,5.50
2023-01-06T21:07:58.404Z,5.28
2023-01-06T21:12:03.247Z,7.80
2023-01-06T21:16:06.616Z,5.20
2023-01-06T21:20:12.138Z,5.40
2023-01-06T21:24:15.607Z,5.53
2023-01-06T21:28:20.096Z,5.35
2023-01-06T21:32:23.348Z,6.82
2023-01-06T21:36:26.873Z,9.82
2023-01-06T21:40:30.849Z,5.35
2023-01-06T21:44:43.630Z,6.35
2023-01-06T21:48:49.246Z,5.80
2023-01-06T21:52:56.679Z,5.18
2023-01-06T21:57:00.700Z,5.63
2023-01-06T22:01:10.321Z,4.70
2023-01-06T22:05:15.186Z,4.32
2023-01-06T22:09:27.941Z,4.72
2023-01-06T22:13:33.631Z,4.22
2023-01-06T22:17:41.309Z,3.70
2023-01-06T22:21:52.057Z,4.15
2023-01-06T22:25:58.380Z,3.45
2023-01-06T22:30:01.811Z,4.00
2023-01-06T22:34:17.167Z,4.00
2023-01-06T22:38:20.710Z,3.67
2023-01-06T22:42:34.897Z,3.88
2023-01-06T22:46:38.281Z,3.58
2023-01-06T22:50:43.403Z,3.65
2023-01-06T22:54:46.427Z,4.03
2023-01-06T22:58:49.895Z,3.40
2023-01-06T23:02:55.034Z,3.45
2023-01-06T23:07:03.269Z,3.63
2023-01-06T23:11:09.933Z,3.90
2023-01-06T23:15:14.118Z,5.18
2023-01-06T23:19:19.375Z,4.00
2023-01-06T23:23:26.390Z,3.67
2023-01-06T23:27:31.546Z,4.38
2023-01-06T23:31:38.775Z,4.60
2023-01-06T23:35:43.163Z,3.70
2023-01-06T23:39:50.293Z,4.05
2023-01-06T23:43:54.365Z,3.83
2023-01-06T23:47:57.524Z,3.85
2023-01-06T23:52:02.020Z,4.07
2023-01-06T23:56:12.283Z,4.88
